M I D A S
Marine Information and Data Acquisition System
Tripno 247 of the Zeeleeuw from 2002-04-22 07:12:33 to 2002-04-22 14:24:39
Back to CruiseResearch ActivitiesStationsMapUnderway DataData graphs

EquipmentUnitsComment
TimeDGPSUTC
LatitudeDGPSDM.mWGS84
LongitudeDGPSDM.mWGS84
HeadingGyrodeg 
SOGDGPSknotsSpeed over ground
COGDGPSdegCourse over ground
DepthEcho soundermeters200 kHz
Missing or incorrect values are displayed as -999
Navigation data collected by the RV Zeeleeuw from 2002-04-22 07:12:33 to 2002-04-22 14:24:39
Time Latitude Longitude Heading SOG COG Depth
2002-04-22 07:13:37 51°16.129 2°53.501 330.2 13.7 331.6 13.9
2002-04-22 07:14:37 51°16.329 2°53.327 327.3 13.7 330.1 14.3
2002-04-22 07:15:37 51°16.535 2°53.162 331.5 13.8 334.8 14
2002-04-22 07:16:37 51°16.739 2°53.001 330 13.6 332.6 12.5
2002-04-22 07:17:37 51°16.932 2°52.814 327.3 13.6 328.4 11.3
2002-04-22 07:18:37 51°17.128 2°52.628 327.5 13.7 328.9 11.6
2002-04-22 07:19:37 51°17.318 2°52.432 319.5 13.5 323 12.4
2002-04-22 07:20:37 51°17.483 2°52.188 313 13.5 316.2 12.3
2002-04-22 07:21:37 51°17.628 2°51.919 305.3 13.3 309.2 12.3
2002-04-22 07:22:37 51°17.757 2°51.637 304.7 13.2 306.9 11.9
2002-04-22 07:23:37 51°17.888 2°51.358 304.5 13.1 306.6 12.7
2002-04-22 07:24:38 51°18.02 2°51.067 303.7 13.3 305.2 14
2002-04-22 07:25:37 51°18.148 2°50.783 303.3 13.4 304.9 15.1
2002-04-22 07:26:37 51°18.275 2°50.492 301.7 13.3 303.9 15.9
2002-04-22 07:27:37 51°18.4 2°50.201 301.3 13.3 303.8 16.2
2002-04-22 07:28:38 51°18.531 2°49.902 301.2 13.5 304 15.3
2002-04-22 07:29:37 51°18.651 2°49.612 300.3 13.2 303.1 12.8
2002-04-22 07:30:37 51°18.771 2°49.324 301.2 12.9 303.9 12.9
2002-04-22 07:31:37 51°18.892 2°49.038 301.5 13.1 304.2 13.8
2002-04-22 07:32:37 51°19.013 2°48.746 302 13.2 303.8 16.3
2002-04-22 07:33:37 51°19.135 2°48.456 303 13.2 304 18.4
2002-04-22 07:34:37 51°19.255 2°48.166 301.2 13 302.5 20.6
2002-04-22 07:35:37 51°19.38 2°47.876 302.2 13.3 303.1 22.6
2002-04-22 07:36:37 51°19.503 2°47.581 302 13.4 305 23.7
2002-04-22 07:37:38 51°19.632 2°47.284 301 13.3 305 23.6
2002-04-22 07:38:38 51°19.735 2°46.977 290.2 13 293.2 22.7
2002-04-22 07:39:37 51°19.811 2°46.657 288.8 13.1 291.6 20.5
2002-04-22 07:40:38 51°19.89 2°46.331 290.5 12.8 291.4 16
2002-04-22 07:41:38 51°19.965 2°46.017 289.8 12.7 291 15.7
2002-04-22 07:42:37 51°20.042 2°45.709 289.5 12.7 291.8 13.8
2002-04-22 07:43:37 51°20.122 2°45.393 289.8 12.9 292.2 24.2
2002-04-22 07:44:37 51°20.191 2°45.07 282.7 12.7 285.1 25.4
2002-04-22 07:45:37 51°20.25 2°44.742 284.8 12.9 285.8 26.5
2002-04-22 07:46:37 51°20.307 2°44.415 283.7 12.7 284.7 28.6
2002-04-22 07:47:37 51°20.362 2°44.088 283.5 12.8 285.2 29.3
2002-04-22 07:48:37 51°20.417 2°43.758 284.2 12.8 284.6 29.4
2002-04-22 07:49:37 51°20.457 2°43.427 276.7 12.6 276.8 28.6
2002-04-22 07:51:07 51°20.5 2°43.086 9.7 5.1 291.8 27.5
2002-04-22 07:52:08 51°20.547 2°42.99 28.5 5.5 313 26.2
2002-04-22 07:53:07 51°20.631 2°42.833 6 9 307.9 23.2
2002-04-22 07:54:07 51°20.723 2°42.565 292.8 11.9 292.4 19.3
2002-04-22 07:55:08 51°20.78 2°42.258 276 11.8 277.8 19.8
2002-04-22 07:56:07 51°20.781 2°41.94 272.3 12.4 272.1 23.6
2002-04-22 07:57:07 51°20.796 2°41.609 273.7 12.5 274.8 25.3
2002-04-22 07:58:07 51°20.813 2°41.276 273.2 12.7 274.8 28.6
2002-04-22 07:59:07 51°20.832 2°40.938 273.7 12.8 275.4 27.7
2002-04-22 08:00:08 51°20.85 2°40.593 273.2 12.8 274.7 26.2
2002-04-22 08:01:07 51°20.868 2°40.262 273.3 12.7 274.8 27.3
2002-04-22 08:02:08 51°20.887 2°39.921 273 12.7 274.7 28.7
2002-04-22 08:03:08 51°20.906 2°39.584 273.5 12.6 275.2 27.4
2002-04-22 08:04:07 51°20.925 2°39.256 273.2 12.6 275.4 27.1
2002-04-22 08:05:08 51°20.945 2°38.919 273.3 12.6 275.7 27
2002-04-22 08:06:08 51°20.966 2°38.583 273.2 12.7 275.3 26.7
2002-04-22 08:07:08 51°20.985 2°38.247 272.8 12.7 275.2 26.5
2002-04-22 08:08:07 51°21.006 2°37.917 273.3 12.6 275.9 26.9
2002-04-22 08:09:08 51°21.03 2°37.576 273.5 12.8 276.6 26.9
2002-04-22 08:10:07 51°21.053 2°37.243 273.3 12.8 275.9 24.8
2002-04-22 08:11:07 51°21.077 2°36.902 273.2 12.9 276 26.7
2002-04-22 08:12:08 51°21.096 2°36.563 273.8 12.4 275.4 28.2
2002-04-22 08:13:07 51°21.114 2°36.241 273.7 12.5 275.5 26.8
2002-04-22 08:14:07 51°21.133 2°35.915 273.7 12.4 275.7 33.2
2002-04-22 08:15:07 51°21.154 2°35.588 273.5 12.3 276 33.5
2002-04-22 08:16:08 51°21.178 2°35.255 273.5 12.4 276.9 35.3
2002-04-22 08:17:08 51°21.202 2°34.922 273.2 12.7 276.5 34.1
2002-04-22 08:18:08 51°21.227 2°34.587 273.2 12.6 276.6 32.6
2002-04-22 08:19:07 51°21.253 2°34.259 273.5 12.7 277.3 31.7
2002-04-22 08:20:08 51°21.28 2°33.917 273.5 12.8 277.3 33.5
2002-04-22 08:21:07 51°21.308 2°33.584 273.5 12.8 278.1 32.6
2002-04-22 08:22:07 51°21.339 2°33.244 276.2 13 280.3 31
2002-04-22 08:23:07 51°21.397 2°32.905 280 13.2 285.3 26.4
2002-04-22 08:24:08 51°21.496 2°32.582 300.3 13.3 302.5 21.6
2002-04-22 08:25:07 51°21.579 2°32.267 287.8 13.1 289.4 23.2
2002-04-22 08:26:07 51°21.666 2°31.949 300.8 13.1 301.6 25.6
2002-04-22 08:27:08 51°21.826 2°31.698 321.8 13.4 323.3 30.7
2002-04-22 08:28:08 51°22.032 2°31.54 336 14 340.3 31.5
2002-04-22 08:29:08 51°22.262 2°31.447 342.8 14.2 346.2 32.2
2002-04-22 08:30:08 51°22.484 2°31.335 330.3 13.8 337.3 32.4
2002-04-22 08:31:08 51°22.645 2°31.107 298.3 12.8 305.8 32.4
2002-04-22 08:32:07 51°22.704 2°30.801 272 12.2 276.8 32.5
2002-04-22 08:33:07 51°22.714 2°30.477 269.8 12.1 272.7 33.2
2002-04-22 08:34:07 51°22.703 2°30.158 263.5 12.1 266.1 34.4
2002-04-22 08:35:08 51°22.694 2°29.831 264.7 12.1 268.2 34.7
2002-04-22 08:36:07 51°22.686 2°29.517 264.2 12 267.2 34.9
2002-04-22 08:37:07 51°22.677 2°29.198 263.3 12.1 267 34.9
2002-04-22 08:38:07 51°22.66 2°28.878 262.2 12.1 265.5 35.2
2002-04-22 08:39:08 51°22.645 2°28.552 263.5 12.1 266.2 35.2
2002-04-22 08:40:08 51°22.65 2°28.223 270.8 12.6 273.7 36.6
2002-04-22 08:41:08 51°22.657 2°27.887 269.3 12.6 271.7 36.7
2002-04-22 08:42:07 51°22.662 2°27.558 269.3 12.6 271 36.3
2002-04-22 08:43:08 51°22.667 2°27.219 269.5 12.6 271.3 35.4
2002-04-22 08:44:07 51°22.671 2°26.889 269.2 12.6 271.2 35.1
2002-04-22 08:45:08 51°22.676 2°26.549 271 12.5 272.4 33.7
2002-04-22 08:46:08 51°22.707 2°26.221 289.2 12.6 286.8 32.2
2002-04-22 08:47:07 51°22.854 2°25.976 325 13.3 326.6 20.1
2002-04-22 08:48:07 51°23.071 2°25.863 344.8 13.9 347 21.3
2002-04-22 08:49:08 51°23.31 2°25.821 355 14.4 357.8 30.5
2002-04-22 08:50:07 51°23.545 2°25.807 354.8 14.4 357.3 34
2002-04-22 08:51:08 51°23.789 2°25.826 9 14.6 8.7 33.9
2002-04-22 08:52:07 51°24.026 2°25.861 359.5 14.6 2.8 34.1
2002-04-22 08:53:08 51°24.273 2°25.878 2.8 14.6 3.7 34.9
2002-04-22 08:54:07 51°24.511 2°25.905 2.2 14.6 3.8 35.4
2002-04-22 08:55:07 51°24.755 2°25.934 0.8 14.7 3.3 36.6
2002-04-22 08:56:08 51°25.004 2°25.967 5 14.8 5.1 35.3
2002-04-22 08:57:08 51°25.248 2°25.997 3 14.6 4.6 35.7
2002-04-22 08:58:07 51°25.487 2°26.027 0.3 14.7 3.2 35.3
2002-04-22 08:59:08 51°25.732 2°26.054 2.5 14.5 4.9 35.9
2002-04-22 09:00:08 51°25.973 2°26.081 2.5 14.4 2.9 32.5
2002-04-22 09:01:08 51°26.213 2°26.106 3.2 14.5 5.3 29.4
2002-04-22 09:02:07 51°26.45 2°26.131 2.7 14.5 3 27.8
2002-04-22 09:03:08 51°26.694 2°26.155 0.7 14.4 3.3 25.1
2002-04-22 09:04:08 51°26.935 2°26.193 7.3 14.6 7 27.9
2002-04-22 09:05:07 51°27.172 2°26.223 0.3 14.5 3.1 33
2002-04-22 09:06:07 51°27.414 2°26.248 6.2 14.7 6.1 34.8
2002-04-22 09:07:08 51°27.659 2°26.322 10.2 14.8 9.6 35.1
2002-04-22 09:08:08 51°27.902 2°26.378 6 14.7 8.5 35.8
2002-04-22 09:09:07 51°28.137 2°26.439 12.2 14.6 11 36.3
2002-04-22 09:10:08 51°28.383 2°26.503 7 14.7 7.2 36.2
2002-04-22 09:11:08 51°28.596 2°26.594 26.8 10.8 24.3 36.4
2002-04-22 09:12:08 51°28.695 2°26.729 60.2 6.2 51.9 36.1
2002-04-22 09:13:08 51°28.735 2°26.841 74.2 4.4 63.1 36.3
2002-04-22 09:14:08 51°28.769 2°26.929 59.8 3.7 53 36.1
2002-04-22 09:15:08 51°28.791 2°26.962 49.7 1.2 38.9 36
2002-04-22 09:16:08 51°28.808 2°26.985 48.5 1.5 38.7 -999
2002-04-22 09:17:08 51°28.83 2°27.01 49.2 1.6 37.4 36.1
2002-04-22 09:18:08 51°28.852 2°27.036 51 1.7 36 36.2
2002-04-22 09:19:08 51°28.875 2°27.065 53.8 1.8 38.7 36
2002-04-22 09:20:07 51°28.906 2°27.109 48.2 3.6 43.1 35.8
2002-04-22 09:21:07 51°29.016 2°27.129 323 8 335.1 36.1
2002-04-22 09:22:08 51°29.114 2°26.927 306.2 11.7 309.4 33.1
2002-04-22 09:23:07 51°29.284 2°26.704 330.7 14.1 330.5 34.1
2002-04-22 09:24:08 51°29.493 2°26.513 325.2 14.2 328.4 35
2002-04-22 09:25:08 51°29.694 2°26.311 325.2 14.3 327.8 25.5
2002-04-22 09:26:07 51°29.894 2°26.111 325.8 14.4 327.7 27.5
2002-04-22 09:27:07 51°30.098 2°25.908 324.8 14.4 328.3 27.8
2002-04-22 09:28:08 51°30.302 2°25.705 325.2 14.1 328.3 36.5
2002-04-22 09:29:08 51°30.429 2°25.42 289.5 13 293.6 36.2
2002-04-22 09:30:08 51°30.542 2°25.118 301.5 13.4 305.4 40.2
2002-04-22 09:31:07 51°30.669 2°24.829 300.8 13.5 303.9 40.1
2002-04-22 09:32:08 51°30.797 2°24.529 300.5 13.4 303.8 38.8
2002-04-22 09:33:08 51°30.923 2°24.237 299.8 13.2 304.4 36
2002-04-22 09:34:08 51°31.049 2°23.943 299.5 13.3 303.6 36.1
2002-04-22 09:35:07 51°31.172 2°23.656 302.2 13.3 305.6 36.3
2002-04-22 09:36:07 51°31.308 2°23.376 304.8 13.4 309 35
2002-04-22 09:37:08 51°31.447 2°23.088 309 13.5 309.9 30.7
2002-04-22 09:38:07 51°31.596 2°22.825 311 13.5 313 31.9
2002-04-22 09:39:08 51°31.761 2°22.567 315 13.7 318.7 30.9
2002-04-22 09:40:08 51°31.944 2°22.343 319.7 13.8 323.4 31.8
2002-04-22 09:41:08 51°32.14 2°22.155 340.5 14.1 340.1 37.2
2002-04-22 09:42:08 51°32.38 2°22.173 20.2 15 17.2 38.1
2002-04-22 09:43:08 51°32.579 2°22.42 40.7 15.3 38.2 38
2002-04-22 09:44:08 51°32.796 2°22.635 32 15.4 30.5 38.3
2002-04-22 09:45:07 51°33.006 2°22.866 36 15.7 35.5 39
2002-04-22 09:46:08 51°33.221 2°23.11 37.7 15.6 35.4 38.6
2002-04-22 09:47:08 51°33.431 2°23.348 37.3 15.5 34.8 38
2002-04-22 09:48:08 51°33.644 2°23.585 35 15.5 34.9 38.6
2002-04-22 09:49:08 51°33.854 2°23.822 35.8 15.3 35.3 37
2002-04-22 09:50:08 51°34.058 2°24.053 37.8 15 35.3 37.4
2002-04-22 09:51:07 51°34.26 2°24.274 36.3 15 33.2 36.4
2002-04-22 09:52:08 51°34.468 2°24.506 35.2 15 34.7 37.9
2002-04-22 09:53:08 51°34.672 2°24.735 36.3 15 35.4 39.3
2002-04-22 09:54:08 51°34.878 2°24.962 37 15.1 34.1 36.5
2002-04-22 09:55:08 51°35.082 2°25.194 37 15 34.8 38.9
2002-04-22 09:56:08 51°35.289 2°25.422 34.8 15.1 34.6 38.3
2002-04-22 09:57:08 51°35.496 2°25.651 37.7 15.2 36.1 37.3
2002-04-22 09:58:08 51°35.7 2°25.881 37.5 14.9 33.9 38.1
2002-04-22 09:59:08 51°35.904 2°26.107 36.2 15 34.7 38.2
2002-04-22 10:00:08 51°36.108 2°26.334 39.2 14.9 35.9 38.1
2002-04-22 10:01:08 51°36.267 2°26.632 52.7 14.7 51.6 37.9
2002-04-22 10:02:08 51°36.441 2°26.916 46.7 14.9 44 37.4
2002-04-22 10:03:08 51°36.615 2°27.199 51 14.9 45.8 38.4
2002-04-22 10:04:07 51°36.78 2°27.486 49.2 14.9 45.8 38.1
2002-04-22 10:05:08 51°36.955 2°27.777 47.7 14.9 45.8 37.3
2002-04-22 10:06:08 51°37.125 2°28.066 49.5 14.9 47.7 35.1
2002-04-22 10:07:08 51°37.294 2°28.357 50 15 47.2 35.8
2002-04-22 10:08:08 51°37.465 2°28.645 49.7 14.9 46.4 36.5
2002-04-22 10:09:08 51°37.634 2°28.932 48.7 14.8 45.9 36
2002-04-22 10:10:08 51°37.806 2°29.222 48.3 15.1 46.1 35.3
2002-04-22 10:11:08 51°37.977 2°29.515 49.3 15 47.4 32.5
2002-04-22 10:12:08 51°38.147 2°29.808 50.7 15.1 46.6 35.3
2002-04-22 10:13:08 51°38.319 2°30.101 49.7 15 46.4 36.8
2002-04-22 10:14:08 51°38.489 2°30.391 48 14.9 46.1 31.9
2002-04-22 10:15:08 51°38.66 2°30.681 48.5 15 47.1 35.3
2002-04-22 10:16:08 51°38.829 2°30.971 49.7 14.8 47.8 36.9
2002-04-22 10:17:08 51°38.997 2°31.258 50.5 14.6 46.8 36.5
2002-04-22 10:18:08 51°39.164 2°31.542 48.7 14.7 44.9 37.5
2002-04-22 10:19:08 51°39.335 2°31.824 48.3 14.7 46 37.7
2002-04-22 10:20:08 51°39.501 2°32.107 49.2 14.5 47.5 39.6
2002-04-22 10:21:08 51°39.668 2°32.387 49.8 14.5 46.7 41.2
2002-04-22 10:22:07 51°39.832 2°32.661 50.8 14.4 46.3 41.6
2002-04-22 10:23:08 51°40.001 2°32.943 50.7 14.5 45.7 38.9
2002-04-22 10:24:08 51°40.162 2°33.231 51.7 14.4 48.2 42.4
2002-04-22 10:25:08 51°40.321 2°33.519 50 14.4 48 42.7
2002-04-22 10:26:11 51°40.489 2°33.822 49.5 14.6 46.1 41.4
2002-04-22 10:27:11 51°40.652 2°34.109 51.7 14.5 49 37.3
2002-04-22 10:28:11 51°40.8 2°34.413 62.3 14.4 58.1 39
2002-04-22 10:29:10 51°40.929 2°34.732 61 14.5 56.2 38
2002-04-22 10:30:11 51°41.006 2°35.095 90.2 14 84.1 36
2002-04-22 10:31:11 51°40.967 2°35.454 112.2 13.7 106.7 32.8
2002-04-22 10:32:11 51°40.894 2°35.802 114.7 13.7 108.9 26.7
2002-04-22 10:33:11 51°40.8 2°36.133 120.5 13.6 115.4 23.2
2002-04-22 10:34:11 51°40.705 2°36.465 119.3 13.8 114.3 25.7
2002-04-22 10:35:11 51°40.609 2°36.8 119.2 13.8 115 35.8
2002-04-22 10:36:11 51°40.514 2°37.133 119.2 13.6 114.8 37.9
2002-04-22 10:37:11 51°40.418 2°37.467 119.7 13.8 114.8 40.9
2002-04-22 10:38:11 51°40.322 2°37.802 119.2 13.7 114.4 41.3
2002-04-22 10:39:10 51°40.23 2°38.13 119.3 13.7 114.3 40.9
2002-04-22 10:40:10 51°40.141 2°38.466 119.8 13.6 113 40.9
2002-04-22 10:41:11 51°40.054 2°38.807 119.3 13.6 112.8 40
2002-04-22 10:42:11 51°39.965 2°39.143 119.3 13.7 113 40.7
2002-04-22 10:43:10 51°39.877 2°39.477 119.5 13.9 113.1 40.9
2002-04-22 10:44:11 51°39.785 2°39.82 119.7 13.8 113 37.6
2002-04-22 10:45:11 51°39.696 2°40.162 119.5 13.9 112.7 35.3
2002-04-22 10:46:11 51°39.606 2°40.502 119.2 13.8 112.9 38.1
2002-04-22 10:47:11 51°39.517 2°40.842 119.3 13.8 113.3 33.7
2002-04-22 10:48:11 51°39.427 2°41.183 119.3 13.8 113 28.7
2002-04-22 10:49:11 51°39.335 2°41.519 119.3 13.7 113.7 25.5
2002-04-22 10:50:11 51°39.242 2°41.853 119.7 13.7 114.3 26.2
2002-04-22 10:51:11 51°39.148 2°42.188 119.3 13.8 114.1 25.3
2002-04-22 10:52:11 51°39.055 2°42.524 119.5 13.7 113.8 32.5
2002-04-22 10:53:11 51°38.961 2°42.861 119.5 13.9 114.3 35.7
2002-04-22 10:54:11 51°38.868 2°43.199 119 13.8 113.7 36.6
2002-04-22 10:55:11 51°38.775 2°43.536 119.3 13.8 113.8 35.5
2002-04-22 10:56:11 51°38.681 2°43.871 119.5 13.7 114.2 36.1
2002-04-22 10:57:11 51°38.587 2°44.204 119.3 13.6 114 32.2
2002-04-22 10:58:10 51°38.495 2°44.528 120 13.6 115.3 34.3
2002-04-22 10:59:11 51°38.391 2°44.857 121.7 13.6 116.9 29.7
2002-04-22 11:00:11 51°38.288 2°45.179 123.7 13.6 118.8 35.4
2002-04-22 11:01:11 51°38.161 2°45.476 132.7 13.4 126.4 35.4
2002-04-22 11:02:11 51°37.995 2°45.653 183.5 11.9 176.8 35.3
2002-04-22 11:03:11 51°37.799 2°45.587 196.7 12.2 192.8 36.3
2002-04-22 11:04:11 51°37.604 2°45.492 199.5 12.3 196.7 36.1
2002-04-22 11:05:11 51°37.408 2°45.4 199.3 12.3 196.4 34.7
2002-04-22 11:06:11 51°37.212 2°45.308 199.5 12.3 196 36.2
2002-04-22 11:07:11 51°37.015 2°45.21 203.2 12.4 199.6 36.2
2002-04-22 11:08:11 51°36.881 2°44.976 244.7 12.1 242.7 37
2002-04-22 11:09:11 51°36.901 2°44.65 293.2 13.1 294.9 37.7
2002-04-22 11:10:11 51°37.033 2°44.358 306 13.6 308 36.7
2002-04-22 11:11:11 51°37.175 2°44.074 307 13.5 308.2 37.6
2002-04-22 11:12:11 51°37.321 2°43.792 306.2 13.7 309 33.2
2002-04-22 11:13:11 51°37.466 2°43.509 307 13.6 308.2 35.1
2002-04-22 11:14:11 51°37.608 2°43.226 308 13.7 308.6 35.6
2002-04-22 11:15:11 51°37.75 2°42.941 308 13.5 309 37.7
2002-04-22 11:16:11 51°37.89 2°42.66 305.7 13.4 307.6 36.8
2002-04-22 11:17:11 51°38.031 2°42.381 307.7 13.6 309.9 35.7
2002-04-22 11:18:11 51°38.146 2°42.082 281.8 12.8 285.3 32.4
2002-04-22 11:19:11 51°38.161 2°41.739 268.5 12.8 271.4 22.7
2002-04-22 11:20:11 51°38.17 2°41.395 269.5 12.9 272.5 23.4
2002-04-22 11:21:11 51°38.173 2°41.055 259.7 12.5 264.4 23.7
2002-04-22 11:22:11 51°38.108 2°40.742 249.3 12.5 251.6 23.6
2002-04-22 11:23:11 51°38.053 2°40.416 252.3 12.7 254.8 29.8
2002-04-22 11:24:11 51°37.995 2°40.09 252.5 12.6 253.7 34.3
2002-04-22 11:25:11 51°37.937 2°39.768 252.3 12.5 253.9 36.2
2002-04-22 11:26:11 51°37.829 2°39.498 221.2 12.2 221.8 38.1
2002-04-22 11:27:11 51°37.637 2°39.381 198.8 12.5 196 40.1
2002-04-22 11:28:11 51°37.435 2°39.282 199.3 12.7 197.1 39.3
2002-04-22 11:29:11 51°37.232 2°39.184 199.5 12.7 196.2 38.2
2002-04-22 11:30:11 51°37.03 2°39.087 199.3 12.7 196.3 40.5
2002-04-22 11:31:11 51°36.827 2°38.993 199.2 12.7 196.4 40.7
2002-04-22 11:32:11 51°36.626 2°38.89 198.7 12.7 198.6 38.6
2002-04-22 11:33:11 51°36.427 2°38.78 199 12.7 198.7 39
2002-04-22 11:34:11 51°36.228 2°38.671 199.5 12.6 198.1 38.6
2002-04-22 11:35:11 51°36.03 2°38.566 199 12.5 198.3 40.4
2002-04-22 11:36:11 51°35.831 2°38.461 199.2 12.7 198 39.8
2002-04-22 11:37:11 51°35.632 2°38.359 195 12.5 194.5 37.7
2002-04-22 11:38:11 51°35.429 2°38.299 192 12.7 190.1 38.6
2002-04-22 11:39:11 51°35.225 2°38.235 192 12.6 189.9 40.1
2002-04-22 11:40:11 51°35.027 2°38.32 150.7 12.7 148.4 38.7
2002-04-22 11:41:11 51°34.901 2°38.608 121.8 13.6 118.3 36.3
2002-04-22 11:42:11 51°34.797 2°38.932 121.5 13.7 117.5 33.9
2002-04-22 11:43:11 51°34.694 2°39.258 121.2 13.7 116.8 30.3
2002-04-22 11:44:11 51°34.591 2°39.582 121.2 13.6 117.4 26.6
2002-04-22 11:45:11 51°34.484 2°39.902 121.7 13.6 118.4 19.6
2002-04-22 11:46:11 51°34.378 2°40.217 121.2 13.3 118.8 16.2
2002-04-22 11:47:11 51°34.27 2°40.533 121.3 13.7 118.7 37.2
2002-04-22 11:48:11 51°34.161 2°40.852 121.5 13.6 119.1 38.6
2002-04-22 11:49:10 51°34.054 2°41.167 121.2 13.7 118.4 39.6
2002-04-22 11:50:11 51°33.946 2°41.494 121.5 13.7 118.4 38.5
2002-04-22 11:51:11 51°33.839 2°41.818 121.3 13.7 117.6 36.5
2002-04-22 11:52:11 51°33.733 2°42.139 121.3 13.6 118.3 37.9
2002-04-22 11:53:11 51°33.627 2°42.453 125.7 13.5 121.7 37.6
2002-04-22 11:54:11 51°33.451 2°42.654 163.3 13.1 160.3 35.5
2002-04-22 11:55:11 51°33.237 2°42.668 187 12.9 185.3 35
2002-04-22 11:56:11 51°33.027 2°42.597 198.3 13 196.9 31.9
2002-04-22 11:57:11 51°32.821 2°42.491 199.3 13 197.7 33.5
2002-04-22 11:58:11 51°32.615 2°42.386 199.5 13 197.4 33.7
2002-04-22 11:59:11 51°32.409 2°42.281 199.7 13.1 197.8 33.4
2002-04-22 12:00:11 51°32.202 2°42.175 199.5 13 197.6 33.3
2002-04-22 12:01:11 51°31.996 2°42.068 199.2 13 198 33.1
2002-04-22 12:02:11 51°31.796 2°41.932 205.3 13.1 204.4 33.1
2002-04-22 12:03:11 51°31.596 2°41.792 204.7 13.1 203.6 32.3
2002-04-22 12:04:11 51°31.395 2°41.654 204.3 13.2 203.6 34.1
2002-04-22 12:05:11 51°31.193 2°41.516 204.5 13.2 202.9 34.2
2002-04-22 12:06:11 51°30.991 2°41.38 204.5 13.2 203 36.2
2002-04-22 12:07:11 51°30.816 2°41.177 232.5 13.1 230.7 36.8
2002-04-22 12:08:11 51°30.697 2°40.884 239.8 13.2 238.6 33.2
2002-04-22 12:09:11 51°30.585 2°40.579 240 13.3 239.6 35.7
2002-04-22 12:10:11 51°30.472 2°40.273 240.3 13.3 239.5 35.4
2002-04-22 12:11:11 51°30.359 2°39.967 240.2 13.3 239 40.8
2002-04-22 12:12:11 51°30.245 2°39.661 240 13.4 239.1 38.9
2002-04-22 12:13:11 51°30.159 2°39.338 261.5 13.2 259.4 38.9
2002-04-22 12:14:11 51°30.147 2°38.988 270 13.2 268.7 38.5
2002-04-22 12:15:11 51°30.144 2°38.634 270.5 13.3 269.3 36.7
2002-04-22 12:16:11 51°30.14 2°38.284 270.8 13.2 269.6 37.7
2002-04-22 12:17:11 51°30.137 2°37.93 270.8 13.3 269.2 36
2002-04-22 12:18:11 51°30.124 2°37.575 265.2 13.3 265 22.5
2002-04-22 12:19:11 51°30.108 2°37.221 266.7 13.4 266.1 23.6
2002-04-22 12:20:11 51°30.094 2°36.866 266.3 13.3 266.4 24.5
2002-04-22 12:21:11 51°30.052 2°36.528 247.8 12.9 247.9 26.4
2002-04-22 12:22:11 51°29.973 2°36.205 251.5 13.1 251.2 32
2002-04-22 12:23:11 51°29.904 2°35.877 251.2 13 251.3 35
2002-04-22 12:24:11 51°29.835 2°35.549 251.3 13 251.5 38.5
2002-04-22 12:25:11 51°29.766 2°35.219 251.7 13.1 252 38.5
2002-04-22 12:26:11 51°29.698 2°34.886 251 13.2 251.8 37.3
2002-04-22 12:27:11 51°29.631 2°34.551 251.5 13.3 252.2 38
2002-04-22 12:28:11 51°29.559 2°34.217 245.3 13.1 247.1 36.5
2002-04-22 12:29:11 51°29.392 2°34.018 195 12.9 195.7 35.5
2002-04-22 12:30:11 51°29.185 2°34.08 156.8 13.1 156 36.9
2002-04-22 12:31:11 51°28.987 2°34.238 155.7 13.3 154.6 36.5
2002-04-22 12:32:11 51°28.782 2°34.38 156.7 13.4 156.8 37.4
2002-04-22 12:33:11 51°28.577 2°34.523 156.3 13.4 156.8 38.5
2002-04-22 12:34:11 51°28.375 2°34.664 156.3 13.2 156.7 36.2
2002-04-22 12:35:11 51°28.17 2°34.803 156.5 13.4 157.7 34.4
2002-04-22 12:36:11 51°27.97 2°34.949 154 13.2 154.7 32.4
2002-04-22 12:37:11 51°27.769 2°35.099 154.3 13.5 155.1 29.1
2002-04-22 12:38:11 51°27.567 2°35.248 154.2 13.3 155.2 27.4
2002-04-22 12:39:11 51°27.366 2°35.394 154.3 13.2 155.8 26.8
2002-04-22 12:40:11 51°27.164 2°35.541 154.5 13.4 155.7 29.1
2002-04-22 12:41:11 51°26.963 2°35.694 152 13.3 153.3 31.6
2002-04-22 12:42:11 51°26.766 2°35.855 152 13.3 152.9 31.7
2002-04-22 12:43:11 51°26.568 2°36.018 152.3 13.4 152.5 32.9
2002-04-22 12:44:11 51°26.372 2°36.18 152.7 13.1 152.8 32.9
2002-04-22 12:45:11 51°26.179 2°36.342 152.5 13.1 152.4 32.9
2002-04-22 12:46:11 51°25.981 2°36.495 155.2 13.1 155.2 32.2
2002-04-22 12:47:11 51°25.785 2°36.648 154.2 13.3 153.3 33.1
2002-04-22 12:48:11 51°25.589 2°36.811 154.8 13.1 152.4 34.9
2002-04-22 12:49:11 51°25.396 2°36.969 153.7 13 152.7 33.4
2002-04-22 12:50:11 51°25.201 2°37.127 153.2 13.1 153.8 31.3
2002-04-22 12:51:11 51°25.007 2°37.288 151 13.2 150.7 29.7
2002-04-22 12:52:11 51°24.814 2°37.455 151.8 13.3 152.4 30.9
2002-04-22 12:53:11 51°24.623 2°37.632 148.7 13.3 149.1 29.8
2002-04-22 12:54:11 51°24.435 2°37.816 146.8 13.3 147.5 29
2002-04-22 12:55:11 51°24.244 2°38.009 147.3 13.5 146.8 22.1
2002-04-22 12:56:11 51°24.053 2°38.203 150.7 13.6 150.9 23.3
2002-04-22 12:57:11 51°23.854 2°38.368 154.5 13.6 154.3 25.4
2002-04-22 12:58:11 51°23.648 2°38.52 155.5 13.6 155.4 24.4
2002-04-22 12:59:11 51°23.437 2°38.644 162.3 13.5 162.4 25.8
2002-04-22 13:00:11 51°23.22 2°38.751 161 13.7 162.3 27.3
2002-04-22 13:01:11 51°23.002 2°38.85 163.8 13.6 164.8 29.4
2002-04-22 13:02:11 51°22.786 2°38.948 162.8 13.5 163.7 29.9
2002-04-22 13:03:11 51°22.573 2°39.045 163.3 13.2 164.1 29.7
2002-04-22 13:04:11 51°22.364 2°39.139 163.3 13.1 164.6 29.3
2002-04-22 13:05:11 51°22.153 2°39.234 163.2 13.2 164.7 27.9
2002-04-22 13:06:11 51°21.94 2°39.325 163.3 13.2 165.2 29.2
2002-04-22 13:07:11 51°21.735 2°39.45 155.5 13.3 156.9 26.5
2002-04-22 13:08:11 51°21.537 2°39.6 141 13 142.6 26.2
2002-04-22 13:09:11 51°21.392 2°39.86 127.7 13.2 128.4 26
2002-04-22 13:10:11 51°21.252 2°40.139 128.5 13.5 128.8 26
2002-04-22 13:11:11 51°21.143 2°40.441 107.8 13.1 106.8 26.2
2002-04-22 13:12:11 51°21.084 2°40.78 110.7 13.3 109.6 25.7
2002-04-22 13:13:11 51°21.003 2°41.112 111 13.4 110.7 24.8
2002-04-22 13:14:11 51°20.922 2°41.446 111.5 13.5 111.4 24.9
2002-04-22 13:15:11 51°20.841 2°41.782 107.7 13.3 108.5 21.2
2002-04-22 13:16:11 51°20.776 2°42.113 107.3 12.7 108.1 17.8
2002-04-22 13:17:11 51°20.71 2°42.439 107.5 12.9 108.4 20.3
2002-04-22 13:18:11 51°20.652 2°42.772 102.3 13.1 102.4 20
2002-04-22 13:19:11 51°20.603 2°43.11 103 13.1 103.4 23.6
2002-04-22 13:20:11 51°20.551 2°43.45 103.3 13.1 104 25.7
2002-04-22 13:21:11 51°20.499 2°43.789 103.8 13.1 104.3 26.4
2002-04-22 13:22:11 51°20.447 2°44.129 103.7 13.2 103.5 26.8
2002-04-22 13:23:11 51°20.396 2°44.471 103.8 13.2 103.6 26.1
2002-04-22 13:24:11 51°20.33 2°44.808 106.8 13.4 107.8 24.8
2002-04-22 13:25:11 51°20.262 2°45.147 106.2 13.4 107.5 22.6
2002-04-22 13:26:11 51°20.187 2°45.481 109 13.4 110.2 21.4
2002-04-22 13:27:11 51°20.09 2°45.799 120.2 13.3 122.2 15.4
2002-04-22 13:28:11 51°19.976 2°46.094 119 13 120.9 12.4
2002-04-22 13:29:11 51°19.866 2°46.392 118.8 13.2 120.8 15.3
2002-04-22 13:30:11 51°19.754 2°46.695 118.3 13.2 120.4 18.7
2002-04-22 13:31:11 51°19.644 2°47 118.2 13.2 120.2 20.7
2002-04-22 13:32:11 51°19.53 2°47.305 118.3 13.4 120.8 21
2002-04-22 13:33:11 51°19.416 2°47.607 118.7 13.2 121.3 20.8
2002-04-22 13:34:11 51°19.301 2°47.909 118.3 13.3 120.9 19.2
2002-04-22 13:35:11 51°19.188 2°48.214 118.3 13.2 119.7 17.2
2002-04-22 13:36:11 51°19.074 2°48.51 121.3 13.1 123.3 14.7
2002-04-22 13:37:11 51°18.958 2°48.799 120.8 13 122.9 12.9
2002-04-22 13:38:11 51°18.842 2°49.086 120.2 12.8 122.6 10.6
2002-04-22 13:39:11 51°18.726 2°49.37 120.8 12.8 123.7 9.7
2002-04-22 13:40:11 51°18.609 2°49.655 120 12.9 123.3 11.1
2002-04-22 13:41:11 51°18.488 2°49.946 120.2 13 123.4 13
2002-04-22 13:42:11 51°18.368 2°50.236 120 13.1 123.5 13.4
2002-04-22 13:43:11 51°18.244 2°50.525 120.3 13.1 124 13
2002-04-22 13:44:11 51°18.124 2°50.815 119.8 13.1 123 12.2
2002-04-22 13:45:11 51°18.004 2°51.106 120.7 13 123.2 11.1
2002-04-22 13:46:11 51°17.886 2°51.395 120.5 13 123.2 9.8
2002-04-22 13:47:11 51°17.768 2°51.683 119.8 13.1 123 9.4
2002-04-22 13:48:11 51°17.647 2°51.973 120.2 13.1 123.6 9.6
2002-04-22 13:49:11 51°17.489 2°52.217 142.2 13.5 146 9.7
2002-04-22 13:50:11 51°17.294 2°52.402 146.2 13.7 149.9 9.4
2002-04-22 13:51:11 51°17.098 2°52.583 146.5 13.4 149.4 8.6
2002-04-22 13:52:11 51°16.899 2°52.75 154.2 13.4 157 8.5
2002-04-22 13:53:11 51°16.689 2°52.89 153.3 14 156.5 10.2
2002-04-22 13:54:11 51°16.476 2°53.037 153 13.8 156.5 11.4
2002-04-22 13:55:11 51°16.265 2°53.181 153.7 13.8 156.8 11.5
2002-04-22 13:56:11 51°16.057 2°53.329 152 13.6 155.3 11.1
2002-04-22 13:57:11 51°15.872 2°53.529 141.7 13.6 144.8 10.7
2002-04-22 13:58:11 51°15.684 2°53.727 143.2 13.6 147 9.9
2002-04-22 13:59:11 51°15.499 2°53.912 141.7 12.9 145.8 9.3
2002-04-22 14:00:11 51°15.315 2°54.092 144.2 12.9 148.3 8.3
2002-04-22 14:01:11 51°15.133 2°54.27 145.3 12.7 149 7.8
2002-04-22 14:02:11 51°14.947 2°54.43 150.2 12.6 153.7 7.6
2002-04-22 14:03:11 51°14.768 2°54.577 144.2 11.7 148.5 8.5
2002-04-22 14:04:11 51°14.611 2°54.755 138.3 11.4 142.7 13.3
2002-04-22 14:05:11 51°14.471 2°54.927 137.5 10.1 142.2 13.9
2002-04-22 14:06:11 51°14.352 2°55.106 132 9.7 130.5 -999
2002-04-22 14:07:11 51°14.263 2°55.266 131.7 6.5 131 -999
2002-04-22 14:08:12 51°14.197 2°55.351 153.8 4.4 149.7 -999
2002-04-22 14:09:11 51°14.137 2°55.404 151.5 4.1 149.6 10.2
2002-04-22 14:10:11 51°14.073 2°55.455 155 4.5 154.1 10.2
2002-04-22 14:11:12 51°14.001 2°55.511 152.8 4.8 151.7 7.2
2002-04-22 14:12:12 51°13.928 2°55.562 159.5 4.7 157.2 -999
2002-04-22 14:13:12 51°13.861 2°55.611 156 4.3 154 -999
2002-04-22 14:14:11 51°13.805 2°55.654 156.2 3.4 153.5 9.7
2002-04-22 14:15:11 51°13.763 2°55.694 140.3 2.7 141.1 9.1
2002-04-22 14:16:11 51°13.736 2°55.747 124.7 2.4 122.6 9
2002-04-22 14:17:11 51°13.716 2°55.803 123.8 2.4 120.9 8.7
2002-04-22 14:18:11 51°13.696 2°55.853 116.8 2 116.7 8.7
2002-04-22 14:19:11 51°13.688 2°55.895 107.3 1.2 103.5 7.2
2002-04-22 14:20:11 51°13.686 2°55.905 111.2 0.2 51.3 7.1
2002-04-22 14:21:11 51°13.687 2°55.906 118 0.1 14.8 7.2
2002-04-22 14:22:12 51°13.688 2°55.905 129.7   332 -999
2002-04-22 14:23:11 51°13.688 2°55.905 128.5 0.1 342.3 -999
2002-04-22 14:24:12 51°13.688 2°55.905 128.7   80 -999